sensor_id;sensor_type;location;lat;lon;timestamp;P1;durP1;ratioP1;P2;durP2;ratioP2
53269;SDS011;39159;45.634;9.420;2022-09-09T00:02:15;16.67;;;9.35;;
53269;SDS011;39159;45.634;9.420;2022-09-09T00:04:46;16.50;;;9.85;;
53269;SDS011;39159;45.634;9.420;2022-09-09T00:07:43;16.48;;;10.38;;
53269;SDS011;39159;45.634;9.420;2022-09-09T00:10:25;15.00;;;9.73;;
53269;SDS011;39159;45.634;9.420;2022-09-09T00:13:21;15.52;;;10.30;;
53269;SDS011;39159;45.634;9.420;2022-09-09T00:21:17;14.48;;;9.63;;
53269;SDS011;39159;45.634;9.420;2022-09-09T00:23:48;15.75;;;10.20;;
53269;SDS011;39159;45.634;9.420;2022-09-09T00:26:35;14.27;;;9.83;;
53269;SDS011;39159;45.634;9.420;2022-09-09T00:31:37;15.63;;;10.15;;
53269;SDS011;39159;45.634;9.420;2022-09-09T00:34:05;16.15;;;10.88;;
53269;SDS011;39159;45.634;9.420;2022-09-09T00:36:34;18.48;;;10.63;;
53269;SDS011;39159;45.634;9.420;2022-09-09T00:39:02;16.27;;;10.32;;
53269;SDS011;39159;45.634;9.420;2022-09-09T00:44:31;17.30;;;10.07;;
53269;SDS011;39159;45.634;9.420;2022-09-09T00:57:38;15.53;;;9.97;;
53269;SDS011;39159;45.634;9.420;2022-09-09T01:07:57;15.43;;;8.90;;
53269;SDS011;39159;45.634;9.420;2022-09-09T01:13:16;14.60;;;9.00;;
53269;SDS011;39159;45.634;9.420;2022-09-09T01:15:48;17.20;;;8.60;;
53269;SDS011;39159;45.634;9.420;2022-09-09T01:18:19;12.85;;;8.50;;
53269;SDS011;39159;45.634;9.420;2022-09-09T01:28:55;13.25;;;8.38;;
53269;SDS011;39159;45.634;9.420;2022-09-09T01:31:28;12.57;;;6.90;;
53269;SDS011;39159;45.634;9.420;2022-09-09T01:33:58;13.55;;;7.25;;
53269;SDS011;39159;45.634;9.420;2022-09-09T01:36:32;13.68;;;8.10;;
53269;SDS011;39159;45.634;9.420;2022-09-09T01:39:03;15.07;;;7.22;;
53269;SDS011;39159;45.634;9.420;2022-09-09T01:41:29;8.68;;;6.93;;
53269;SDS011;39159;45.634;9.420;2022-09-09T01:43:54;15.15;;;8.40;;
53269;SDS011;39159;45.634;9.420;2022-09-09T01:46:21;13.02;;;7.30;;
53269;SDS011;39159;45.634;9.420;2022-09-09T01:48:48;14.95;;;7.90;;
53269;SDS011;39159;45.634;9.420;2022-09-09T01:51:17;15.52;;;7.65;;
53269;SDS011;39159;45.634;9.420;2022-09-09T01:53:42;14.27;;;7.32;;
53269;SDS011;39159;45.634;9.420;2022-09-09T01:58:47;10.88;;;6.93;;
53269;SDS011;39159;45.634;9.420;2022-09-09T02:04:03;11.23;;;6.70;;
53269;SDS011;39159;45.634;9.420;2022-09-09T02:06:55;12.88;;;7.05;;
53269;SDS011;39159;45.634;9.420;2022-09-09T02:09:22;14.38;;;6.78;;
53269;SDS011;39159;45.634;9.420;2022-09-09T02:11:49;11.23;;;6.78;;
53269;SDS011;39159;45.634;9.420;2022-09-09T02:14:30;11.02;;;6.68;;
53269;SDS011;39159;45.634;9.420;2022-09-09T02:17:07;9.68;;;6.22;;
53269;SDS011;39159;45.634;9.420;2022-09-09T02:19:37;17.33;;;7.13;;
53269;SDS011;39159;45.634;9.420;2022-09-09T02:22:13;12.43;;;6.38;;
53269;SDS011;39159;45.634;9.420;2022-09-09T02:24:42;10.65;;;6.38;;
53269;SDS011;39159;45.634;9.420;2022-09-09T02:27:11;13.02;;;6.72;;
53269;SDS011;39159;45.634;9.420;2022-09-09T02:29:40;12.13;;;6.80;;
53269;SDS011;39159;45.634;9.420;2022-09-09T02:32:11;10.55;;;6.15;;
53269;SDS011;39159;45.634;9.420;2022-09-09T02:34:42;12.10;;;6.53;;
53269;SDS011;39159;45.634;9.420;2022-09-09T02:37:11;7.47;;;5.60;;
53269;SDS011;39159;45.634;9.420;2022-09-09T02:39:40;9.27;;;5.60;;
53269;SDS011;39159;45.634;9.420;2022-09-09T02:42:05;12.27;;;6.70;;
53269;SDS011;39159;45.634;9.420;2022-09-09T02:44:32;9.27;;;5.55;;
53269;SDS011;39159;45.634;9.420;2022-09-09T02:50:08;12.13;;;5.60;;
53269;SDS011;39159;45.634;9.420;2022-09-09T02:55:54;7.82;;;5.15;;
53269;SDS011;39159;45.634;9.420;2022-09-09T02:58:14;7.57;;;4.82;;
53269;SDS011;39159;45.634;9.420;2022-09-09T03:00:42;7.82;;;4.88;;
53269;SDS011;39159;45.634;9.420;2022-09-09T03:03:09;8.25;;;4.55;;
53269;SDS011;39159;45.634;9.420;2022-09-09T03:05:35;9.45;;;4.63;;
53269;SDS011;39159;45.634;9.420;2022-09-09T03:08:00;6.45;;;4.40;;
53269;SDS011;39159;45.634;9.420;2022-09-09T03:10:27;10.13;;;4.72;;
53269;SDS011;39159;45.634;9.420;2022-09-09T03:12:52;6.97;;;4.85;;
53269;SDS011;39159;45.634;9.420;2022-09-09T03:15:18;8.68;;;5.10;;
53269;SDS011;39159;45.634;9.420;2022-09-09T03:17:43;7.75;;;4.47;;
53269;SDS011;39159;45.634;9.420;2022-09-09T03:20:09;5.82;;;4.40;;
53269;SDS011;39159;45.634;9.420;2022-09-09T03:22:34;11.82;;;5.18;;
53269;SDS011;39159;45.634;9.420;2022-09-09T03:25:00;8.20;;;4.97;;
53269;SDS011;39159;45.634;9.420;2022-09-09T03:27:27;6.47;;;4.65;;
53269;SDS011;39159;45.634;9.420;2022-09-09T03:29:53;10.63;;;5.13;;
53269;SDS011;39159;45.634;9.420;2022-09-09T03:32:19;9.73;;;4.75;;
53269;SDS011;39159;45.634;9.420;2022-09-09T03:34:47;7.20;;;4.80;;
53269;SDS011;39159;45.634;9.420;2022-09-09T03:37:14;7.78;;;5.00;;
53269;SDS011;39159;45.634;9.420;2022-09-09T03:39:40;11.00;;;4.78;;
53269;SDS011;39159;45.634;9.420;2022-09-09T03:42:06;7.28;;;4.43;;
53269;SDS011;39159;45.634;9.420;2022-09-09T03:44:31;9.73;;;5.00;;
53269;SDS011;39159;45.634;9.420;2022-09-09T03:46:57;6.63;;;4.82;;
53269;SDS011;39159;45.634;9.420;2022-09-09T03:49:24;9.75;;;5.05;;
53269;SDS011;39159;45.634;9.420;2022-09-09T03:51:52;7.18;;;4.65;;
53269;SDS011;39159;45.634;9.420;2022-09-09T03:54:17;7.95;;;4.82;;
53269;SDS011;39159;45.634;9.420;2022-09-09T03:56:43;8.77;;;5.20;;
53269;SDS011;39159;45.634;9.420;2022-09-09T03:59:08;9.50;;;5.88;;
53269;SDS011;39159;45.634;9.420;2022-09-09T04:01:33;11.95;;;6.68;;
53269;SDS011;39159;45.634;9.420;2022-09-09T04:03:59;11.27;;;5.88;;
53269;SDS011;39159;45.634;9.420;2022-09-09T04:06:26;10.43;;;6.80;;
53269;SDS011;39159;45.634;9.420;2022-09-09T04:08:52;10.52;;;6.25;;
53269;SDS011;39159;45.634;9.420;2022-09-09T04:11:18;11.88;;;7.00;;
53269;SDS011;39159;45.634;9.420;2022-09-09T04:13:44;12.50;;;7.75;;
53269;SDS011;39159;45.634;9.420;2022-09-09T04:16:11;15.25;;;8.77;;
53269;SDS011;39159;45.634;9.420;2022-09-09T04:18:38;12.90;;;9.02;;
53269;SDS011;39159;45.634;9.420;2022-09-09T04:21:04;13.75;;;10.05;;
53269;SDS011;39159;45.634;9.420;2022-09-09T04:23:31;13.32;;;9.55;;
53269;SDS011;39159;45.634;9.420;2022-09-09T04:25:59;11.75;;;8.93;;
53269;SDS011;39159;45.634;9.420;2022-09-09T04:28:26;14.43;;;9.80;;
53269;SDS011;39159;45.634;9.420;2022-09-09T04:30:53;11.90;;;8.30;;
53269;SDS011;39159;45.634;9.420;2022-09-09T04:33:19;22.58;;;10.55;;
53269;SDS011;39159;45.634;9.420;2022-09-09T04:35:49;14.10;;;8.60;;
53269;SDS011;39159;45.634;9.420;2022-09-09T04:38:15;16.73;;;9.23;;
53269;SDS011;39159;45.634;9.420;2022-09-09T04:40:43;14.73;;;9.50;;
53269;SDS011;39159;45.634;9.420;2022-09-09T04:43:12;16.42;;;9.90;;
53269;SDS011;39159;45.634;9.420;2022-09-09T04:45:39;16.70;;;9.10;;
53269;SDS011;39159;45.634;9.420;2022-09-09T04:48:05;9.60;;;5.45;;
53269;SDS011;39159;45.634;9.420;2022-09-09T04:50:31;6.55;;;3.72;;
53269;SDS011;39159;45.634;9.420;2022-09-09T04:52:59;4.00;;;2.20;;
53269;SDS011;39159;45.634;9.420;2022-09-09T04:55:25;3.30;;;1.98;;
53269;SDS011;39159;45.634;9.420;2022-09-09T04:57:51;4.25;;;1.92;;
53269;SDS011;39159;45.634;9.420;2022-09-09T05:00:16;4.85;;;2.05;;
53269;SDS011;39159;45.634;9.420;2022-09-09T05:02:42;3.08;;;1.70;;
53269;SDS011;39159;45.634;9.420;2022-09-09T05:05:07;3.38;;;1.50;;
53269;SDS011;39159;45.634;9.420;2022-09-09T05:07:33;2.47;;;1.40;;
53269;SDS011;39159;45.634;9.420;2022-09-09T05:09:59;3.50;;;1.40;;
53269;SDS011;39159;45.634;9.420;2022-09-09T05:12:24;2.15;;;1.48;;
53269;SDS011;39159;45.634;9.420;2022-09-09T05:14:50;2.45;;;1.40;;
53269;SDS011;39159;45.634;9.420;2022-09-09T05:17:19;6.22;;;1.20;;
53269;SDS011;39159;45.634;9.420;2022-09-09T05:19:44;2.67;;;1.20;;
53269;SDS011;39159;45.634;9.420;2022-09-09T05:22:10;2.05;;;1.30;;
53269;SDS011;39159;45.634;9.420;2022-09-09T05:24:36;2.22;;;1.33;;
53269;SDS011;39159;45.634;9.420;2022-09-09T05:27:02;2.22;;;1.58;;
53269;SDS011;39159;45.634;9.420;2022-09-09T05:29:28;1.88;;;0.90;;
53269;SDS011;39159;45.634;9.420;2022-09-09T05:31:53;2.55;;;1.00;;
53269;SDS011;39159;45.634;9.420;2022-09-09T05:34:19;2.65;;;1.00;;
53269;SDS011;39159;45.634;9.420;2022-09-09T05:36:45;2.75;;;0.90;;
53269;SDS011;39159;45.634;9.420;2022-09-09T05:39:11;2.35;;;1.00;;
53269;SDS011;39159;45.634;9.420;2022-09-09T05:41:37;2.25;;;1.35;;
53269;SDS011;39159;45.634;9.420;2022-09-09T05:44:02;1.55;;;0.80;;
53269;SDS011;39159;45.634;9.420;2022-09-09T05:46:28;9.25;;;1.88;;
53269;SDS011;39159;45.634;9.420;2022-09-09T05:48:54;6.25;;;1.50;;
53269;SDS011;39159;45.634;9.420;2022-09-09T05:51:20;2.90;;;1.25;;
53269;SDS011;39159;45.634;9.420;2022-09-09T05:53:49;5.05;;;1.40;;
53269;SDS011;39159;45.634;9.420;2022-09-09T05:56:17;8.15;;;2.05;;
53269;SDS011;39159;45.634;9.420;2022-09-09T05:58:44;5.05;;;1.92;;
53269;SDS011;39159;45.634;9.420;2022-09-09T06:01:19;3.40;;;1.40;;
53269;SDS011;39159;45.634;9.420;2022-09-09T06:03:52;4.50;;;1.58;;
53269;SDS011;39159;45.634;9.420;2022-09-09T06:06:18;3.45;;;1.17;;
53269;SDS011;39159;45.634;9.420;2022-09-09T06:08:45;4.55;;;1.48;;
53269;SDS011;39159;45.634;9.420;2022-09-09T06:11:12;4.30;;;1.40;;
53269;SDS011;39159;45.634;9.420;2022-09-09T06:13:38;7.10;;;1.92;;
53269;SDS011;39159;45.634;9.420;2022-09-09T06:16:06;2.72;;;1.17;;
53269;SDS011;39159;45.634;9.420;2022-09-09T06:18:34;4.50;;;1.33;;
53269;SDS011;39159;45.634;9.420;2022-09-09T06:21:00;15.15;;;1.55;;
53269;SDS011;39159;45.634;9.420;2022-09-09T06:23:29;2.60;;;1.40;;
53269;SDS011;39159;45.634;9.420;2022-09-09T06:26:05;7.22;;;1.73;;
53269;SDS011;39159;45.634;9.420;2022-09-09T06:28:33;4.80;;;1.92;;
53269;SDS011;39159;45.634;9.420;2022-09-09T06:31:00;1.70;;;1.30;;
53269;SDS011;39159;45.634;9.420;2022-09-09T06:33:30;3.25;;;1.70;;
53269;SDS011;39159;45.634;9.420;2022-09-09T06:35:57;3.97;;;1.70;;
53269;SDS011;39159;45.634;9.420;2022-09-09T06:38:23;3.72;;;1.63;;
53269;SDS011;39159;45.634;9.420;2022-09-09T06:40:54;8.95;;;1.67;;
53269;SDS011;39159;45.634;9.420;2022-09-09T06:43:23;2.60;;;1.50;;
53269;SDS011;39159;45.634;9.420;2022-09-09T06:45:52;3.50;;;1.80;;
53269;SDS011;39159;45.634;9.420;2022-09-09T06:48:25;2.13;;;1.70;;
53269;SDS011;39159;45.634;9.420;2022-09-09T06:50:51;3.53;;;1.60;;
53269;SDS011;39159;45.634;9.420;2022-09-09T06:53:26;3.22;;;1.60;;
53269;SDS011;39159;45.634;9.420;2022-09-09T06:55:52;3.45;;;1.55;;
53269;SDS011;39159;45.634;9.420;2022-09-09T06:58:17;3.35;;;1.73;;
53269;SDS011;39159;45.634;9.420;2022-09-09T07:00:43;4.45;;;1.70;;
53269;SDS011;39159;45.634;9.420;2022-09-09T07:03:09;3.40;;;1.45;;
53269;SDS011;39159;45.634;9.420;2022-09-09T07:05:35;5.15;;;1.80;;
53269;SDS011;39159;45.634;9.420;2022-09-09T07:08:00;5.32;;;1.65;;
53269;SDS011;39159;45.634;9.420;2022-09-09T07:10:27;2.67;;;1.25;;
53269;SDS011;39159;45.634;9.420;2022-09-09T07:12:52;2.45;;;1.27;;
53269;SDS011;39159;45.634;9.420;2022-09-09T07:15:18;1.90;;;1.25;;
53269;SDS011;39159;45.634;9.420;2022-09-09T07:17:44;8.82;;;1.45;;
53269;SDS011;39159;45.634;9.420;2022-09-09T07:20:10;2.80;;;1.30;;
53269;SDS011;39159;45.634;9.420;2022-09-09T07:22:36;4.78;;;1.40;;
53269;SDS011;39159;45.634;9.420;2022-09-09T07:25:01;3.55;;;1.40;;
53269;SDS011;39159;45.634;9.420;2022-09-09T07:27:27;3.92;;;1.30;;
53269;SDS011;39159;45.634;9.420;2022-09-09T07:29:52;2.15;;;1.30;;
53269;SDS011;39159;45.634;9.420;2022-09-09T07:32:19;4.68;;;1.60;;
53269;SDS011;39159;45.634;9.420;2022-09-09T07:34:45;5.07;;;1.70;;
53269;SDS011;39159;45.634;9.420;2022-09-09T07:37:12;4.88;;;1.80;;
53269;SDS011;39159;45.634;9.420;2022-09-09T07:39:38;3.65;;;1.73;;
53269;SDS011;39159;45.634;9.420;2022-09-09T07:42:04;2.72;;;1.67;;
53269;SDS011;39159;45.634;9.420;2022-09-09T07:44:30;3.05;;;1.55;;
53269;SDS011;39159;45.634;9.420;2022-09-09T07:46:59;5.85;;;1.73;;
53269;SDS011;39159;45.634;9.420;2022-09-09T07:49:25;2.00;;;1.60;;
53269;SDS011;39159;45.634;9.420;2022-09-09T07:51:50;7.40;;;1.60;;
53269;SDS011;39159;45.634;9.420;2022-09-09T07:54:17;3.33;;;1.88;;
53269;SDS011;39159;45.634;9.420;2022-09-09T07:56:48;11.73;;;1.83;;
53269;SDS011;39159;45.634;9.420;2022-09-09T07:59:14;2.13;;;1.63;;
53269;SDS011;39159;45.634;9.420;2022-09-09T08:01:41;2.50;;;1.75;;
53269;SDS011;39159;45.634;9.420;2022-09-09T08:04:09;4.57;;;1.63;;
53269;SDS011;39159;45.634;9.420;2022-09-09T08:06:40;2.47;;;1.50;;
53269;SDS011;39159;45.634;9.420;2022-09-09T08:09:08;2.65;;;1.80;;
53269;SDS011;39159;45.634;9.420;2022-09-09T08:11:34;3.88;;;1.30;;
53269;SDS011;39159;45.634;9.420;2022-09-09T08:14:01;2.85;;;1.60;;
53269;SDS011;39159;45.634;9.420;2022-09-09T08:16:28;1.80;;;1.50;;
53269;SDS011;39159;45.634;9.420;2022-09-09T08:18:56;2.20;;;1.33;;
53269;SDS011;39159;45.634;9.420;2022-09-09T08:21:26;2.05;;;1.38;;
53269;SDS011;39159;45.634;9.420;2022-09-09T08:23:53;3.05;;;1.17;;
53269;SDS011;39159;45.634;9.420;2022-09-09T08:26:24;1.50;;;1.20;;
53269;SDS011;39159;45.634;9.420;2022-09-09T08:28:50;2.80;;;1.30;;
53269;SDS011;39159;45.634;9.420;2022-09-09T08:31:18;1.83;;;1.33;;
53269;SDS011;39159;45.634;9.420;2022-09-09T08:33:46;2.00;;;1.27;;
53269;SDS011;39159;45.634;9.420;2022-09-09T08:36:13;1.83;;;1.20;;
53269;SDS011;39159;45.634;9.420;2022-09-09T08:38:40;2.08;;;1.17;;
53269;SDS011;39159;45.634;9.420;2022-09-09T08:43:37;2.72;;;1.20;;
53269;SDS011;39159;45.634;9.420;2022-09-09T08:46:26;5.10;;;0.95;;
53269;SDS011;39159;45.634;9.420;2022-09-09T08:48:58;2.50;;;1.10;;
53269;SDS011;39159;45.634;9.420;2022-09-09T08:51:31;2.38;;;0.95;;
53269;SDS011;39159;45.634;9.420;2022-09-09T08:53:58;2.38;;;0.90;;
53269;SDS011;39159;45.634;9.420;2022-09-09T08:56:28;1.92;;;1.17;;
53269;SDS011;39159;45.634;9.420;2022-09-09T08:58:57;4.70;;;1.33;;
53269;SDS011;39159;45.634;9.420;2022-09-09T09:12:24;3.13;;;1.20;;
53269;SDS011;39159;45.634;9.420;2022-09-09T09:14:52;4.15;;;1.08;;
53269;SDS011;39159;45.634;9.420;2022-09-09T09:17:20;4.53;;;1.17;;
53269;SDS011;39159;45.634;9.420;2022-09-09T09:19:48;6.05;;;1.02;;
53269;SDS011;39159;45.634;9.420;2022-09-09T09:24:52;1.65;;;1.08;;
53269;SDS011;39159;45.634;9.420;2022-09-09T09:30:29;1.70;;;0.90;;
53269;SDS011;39159;45.634;9.420;2022-09-09T09:33:14;1.58;;;0.77;;
53269;SDS011;39159;45.634;9.420;2022-09-09T09:35:43;2.38;;;0.90;;
53269;SDS011;39159;45.634;9.420;2022-09-09T09:41:04;2.10;;;0.90;;
53269;SDS011;39159;45.634;9.420;2022-09-09T09:43:36;5.35;;;1.00;;
53269;SDS011;39159;45.634;9.420;2022-09-09T09:46:04;4.72;;;0.75;;
53269;SDS011;39159;45.634;9.420;2022-09-09T09:48:42;1.52;;;0.85;;
53269;SDS011;39159;45.634;9.420;2022-09-09T09:51:09;2.50;;;0.85;;
53269;SDS011;39159;45.634;9.420;2022-09-09T09:53:40;2.13;;;0.80;;
53269;SDS011;39159;45.634;9.420;2022-09-09T09:56:07;2.53;;;0.93;;
53269;SDS011;39159;45.634;9.420;2022-09-09T10:01:03;2.17;;;0.80;;
53269;SDS011;39159;45.634;9.420;2022-09-09T10:03:33;1.98;;;0.93;;
53269;SDS011;39159;45.634;9.420;2022-09-09T10:06:05;2.40;;;0.70;;
53269;SDS011;39159;45.634;9.420;2022-09-09T10:08:33;1.92;;;1.00;;
53269;SDS011;39159;45.634;9.420;2022-09-09T10:19:09;1.90;;;0.80;;
53269;SDS011;39159;45.634;9.420;2022-09-09T10:21:52;1.85;;;1.50;;
53269;SDS011;39159;45.634;9.420;2022-09-09T10:32:47;2.35;;;0.80;;
53269;SDS011;39159;45.634;9.420;2022-09-09T10:35:57;2.30;;;1.20;;
53269;SDS011;39159;45.634;9.420;2022-09-09T10:43:21;1.13;;;0.80;;
53269;SDS011;39159;45.634;9.420;2022-09-09T10:46:11;2.85;;;0.65;;
53269;SDS011;39159;45.634;9.420;2022-09-09T10:55:16;1.65;;;0.80;;
53269;SDS011;39159;45.634;9.420;2022-09-09T10:59:50;1.08;;;0.68;;
53269;SDS011;39159;45.634;9.420;2022-09-09T11:02:32;0.77;;;0.57;;
53269;SDS011;39159;45.634;9.420;2022-09-09T11:10:00;2.00;;;0.60;;
53269;SDS011;39159;45.634;9.420;2022-09-09T11:12:31;1.20;;;0.60;;
53269;SDS011;39159;45.634;9.420;2022-09-09T11:15:04;1.98;;;0.60;;
53269;SDS011;39159;45.634;9.420;2022-09-09T11:17:40;1.10;;;0.70;;
53269;SDS011;39159;45.634;9.420;2022-09-09T11:20:12;1.38;;;0.60;;
53269;SDS011;39159;45.634;9.420;2022-09-09T11:25:23;0.70;;;0.60;;
53269;SDS011;39159;45.634;9.420;2022-09-09T11:36:13;1.33;;;0.77;;
53269;SDS011;39159;45.634;9.420;2022-09-09T11:38:50;2.00;;;0.57;;
53269;SDS011;39159;45.634;9.420;2022-09-09T11:41:20;0.90;;;0.60;;
53269;SDS011;39159;45.634;9.420;2022-09-09T11:43:49;1.20;;;0.73;;
53269;SDS011;39159;45.634;9.420;2022-09-09T11:46:17;0.83;;;0.70;;
53269;SDS011;39159;45.634;9.420;2022-09-09T11:49:00;2.83;;;0.80;;
53269;SDS011;39159;45.634;9.420;2022-09-09T11:51:29;3.00;;;0.95;;
53269;SDS011;39159;45.634;9.420;2022-09-09T11:53:57;1.58;;;0.80;;
53269;SDS011;39159;45.634;9.420;2022-09-09T11:56:34;1.90;;;0.90;;
53269;SDS011;39159;45.634;9.420;2022-09-09T11:59:21;1.48;;;0.88;;
53269;SDS011;39159;45.634;9.420;2022-09-09T12:01:56;2.83;;;0.90;;
53269;SDS011;39159;45.634;9.420;2022-09-09T12:07:00;2.05;;;0.80;;
53269;SDS011;39159;45.634;9.420;2022-09-09T12:09:33;1.63;;;0.90;;
53269;SDS011;39159;45.634;9.420;2022-09-09T12:12:26;1.33;;;0.70;;
53269;SDS011;39159;45.634;9.420;2022-09-09T12:14:57;1.65;;;0.60;;
53269;SDS011;39159;45.634;9.420;2022-09-09T12:17:26;5.75;;;1.48;;
53269;SDS011;39159;45.634;9.420;2022-09-09T12:20:02;1.58;;;0.70;;
53269;SDS011;39159;45.634;9.420;2022-09-09T12:28:04;1.23;;;0.70;;
53269;SDS011;39159;45.634;9.420;2022-09-09T12:33:34;1.80;;;0.90;;
53269;SDS011;39159;45.634;9.420;2022-09-09T12:36:18;3.60;;;0.90;;
53269;SDS011;39159;45.634;9.420;2022-09-09T12:38:49;2.35;;;0.85;;
53269;SDS011;39159;45.634;9.420;2022-09-09T12:41:20;4.22;;;0.80;;
53269;SDS011;39159;45.634;9.420;2022-09-09T12:43:47;3.47;;;0.82;;
53269;SDS011;39159;45.634;9.420;2022-09-09T12:46:21;1.90;;;1.00;;
53269;SDS011;39159;45.634;9.420;2022-09-09T12:48:52;1.30;;;0.90;;
53269;SDS011;39159;45.634;9.420;2022-09-09T12:51:21;1.42;;;0.80;;
53269;SDS011;39159;45.634;9.420;2022-09-09T12:53:52;1.70;;;0.90;;
53269;SDS011;39159;45.634;9.420;2022-09-09T12:56:19;3.28;;;0.85;;
53269;SDS011;39159;45.634;9.420;2022-09-09T12:58:48;2.75;;;0.82;;
53269;SDS011;39159;45.634;9.420;2022-09-09T13:01:26;1.30;;;0.90;;
53269;SDS011;39159;45.634;9.420;2022-09-09T13:03:53;1.55;;;1.02;;
53269;SDS011;39159;45.634;9.420;2022-09-09T13:06:23;3.70;;;0.80;;
53269;SDS011;39159;45.634;9.420;2022-09-09T13:08:53;2.33;;;1.15;;
53269;SDS011;39159;45.634;9.420;2022-09-09T13:11:21;2.08;;;0.90;;
53269;SDS011;39159;45.634;9.420;2022-09-09T13:13:51;6.90;;;0.95;;
53269;SDS011;39159;45.634;9.420;2022-09-09T13:16:20;2.30;;;0.98;;
53269;SDS011;39159;45.634;9.420;2022-09-09T13:19:00;2.08;;;1.00;;
53269;SDS011;39159;45.634;9.420;2022-09-09T13:21:37;1.77;;;0.93;;
53269;SDS011;39159;45.634;9.420;2022-09-09T13:24:05;2.65;;;0.90;;
53269;SDS011;39159;45.634;9.420;2022-09-09T13:26:32;3.30;;;1.10;;
53269;SDS011;39159;45.634;9.420;2022-09-09T13:29:14;4.70;;;1.02;;
53269;SDS011;39159;45.634;9.420;2022-09-09T13:31:44;1.65;;;0.95;;
53269;SDS011;39159;45.634;9.420;2022-09-09T13:34:33;1.30;;;1.02;;
53269;SDS011;39159;45.634;9.420;2022-09-09T13:37:03;2.85;;;1.08;;
53269;SDS011;39159;45.634;9.420;2022-09-09T13:39:32;3.63;;;0.85;;
53269;SDS011;39159;45.634;9.420;2022-09-09T13:41:59;0.98;;;0.88;;
53269;SDS011;39159;45.634;9.420;2022-09-09T13:44:30;3.15;;;1.10;;
53269;SDS011;39159;45.634;9.420;2022-09-09T13:47:33;3.72;;;0.93;;
53269;SDS011;39159;45.634;9.420;2022-09-09T13:49:56;1.60;;;0.80;;
53269;SDS011;39159;45.634;9.420;2022-09-09T13:52:22;1.13;;;0.90;;
53269;SDS011;39159;45.634;9.420;2022-09-09T13:54:48;3.88;;;1.00;;
53269;SDS011;39159;45.634;9.420;2022-09-09T13:57:16;2.08;;;1.23;;
53269;SDS011;39159;45.634;9.420;2022-09-09T13:59:44;1.45;;;0.80;;
53269;SDS011;39159;45.634;9.420;2022-09-09T14:02:10;3.78;;;0.90;;
53269;SDS011;39159;45.634;9.420;2022-09-09T14:04:35;1.85;;;0.80;;
53269;SDS011;39159;45.634;9.420;2022-09-09T14:07:01;1.80;;;0.80;;
53269;SDS011;39159;45.634;9.420;2022-09-09T14:09:27;3.17;;;1.10;;
53269;SDS011;39159;45.634;9.420;2022-09-09T14:11:52;3.22;;;1.00;;
53269;SDS011;39159;45.634;9.420;2022-09-09T14:14:18;1.60;;;0.80;;
53269;SDS011;39159;45.634;9.420;2022-09-09T14:16:43;4.03;;;0.90;;
53269;SDS011;39159;45.634;9.420;2022-09-09T14:19:09;4.90;;;1.17;;
53269;SDS011;39159;45.634;9.420;2022-09-09T14:21:34;3.33;;;0.80;;
53269;SDS011;39159;45.634;9.420;2022-09-09T14:24:00;2.40;;;0.95;;
53269;SDS011;39159;45.634;9.420;2022-09-09T14:26:26;1.60;;;0.90;;
53269;SDS011;39159;45.634;9.420;2022-09-09T14:28:53;1.65;;;0.88;;
53269;SDS011;39159;45.634;9.420;2022-09-09T14:31:19;2.50;;;0.90;;
53269;SDS011;39159;45.634;9.420;2022-09-09T14:33:44;2.83;;;0.90;;
53269;SDS011;39159;45.634;9.420;2022-09-09T14:36:10;2.80;;;0.95;;
53269;SDS011;39159;45.634;9.420;2022-09-09T14:38:36;2.53;;;1.20;;
53269;SDS011;39159;45.634;9.420;2022-09-09T14:41:05;2.78;;;0.93;;
53269;SDS011;39159;45.634;9.420;2022-09-09T14:43:31;5.15;;;1.25;;
53269;SDS011;39159;45.634;9.420;2022-09-09T14:45:57;4.82;;;1.33;;
53269;SDS011;39159;45.634;9.420;2022-09-09T14:48:30;2.63;;;1.10;;
53269;SDS011;39159;45.634;9.420;2022-09-09T14:50:56;4.35;;;1.30;;
53269;SDS011;39159;45.634;9.420;2022-09-09T14:53:21;3.05;;;1.00;;
53269;SDS011;39159;45.634;9.420;2022-09-09T14:55:46;2.38;;;1.02;;
53269;SDS011;39159;45.634;9.420;2022-09-09T14:58:13;2.20;;;1.08;;
53269;SDS011;39159;45.634;9.420;2022-09-09T15:00:38;2.17;;;0.90;;
53269;SDS011;39159;45.634;9.420;2022-09-09T15:03:04;2.05;;;0.93;;
53269;SDS011;39159;45.634;9.420;2022-09-09T15:05:29;6.10;;;1.50;;
53269;SDS011;39159;45.634;9.420;2022-09-09T15:07:56;9.75;;;1.50;;
53269;SDS011;39159;45.634;9.420;2022-09-09T15:10:23;4.55;;;1.13;;
53269;SDS011;39159;45.634;9.420;2022-09-09T15:12:49;1.65;;;0.90;;
53269;SDS011;39159;45.634;9.420;2022-09-09T15:15:14;2.78;;;1.10;;
53269;SDS011;39159;45.634;9.420;2022-09-09T15:17:40;4.20;;;1.10;;
53269;SDS011;39159;45.634;9.420;2022-09-09T15:20:05;5.88;;;1.27;;
53269;SDS011;39159;45.634;9.420;2022-09-09T15:22:32;1.67;;;1.00;;
53269;SDS011;39159;45.634;9.420;2022-09-09T15:24:58;2.22;;;1.00;;
53269;SDS011;39159;45.634;9.420;2022-09-09T15:27:24;2.00;;;1.15;;
53269;SDS011;39159;45.634;9.420;2022-09-09T15:29:49;2.55;;;1.10;;
53269;SDS011;39159;45.634;9.420;2022-09-09T15:32:16;1.90;;;1.30;;
53269;SDS011;39159;45.634;9.420;2022-09-09T15:34:42;2.33;;;1.30;;
53269;SDS011;39159;45.634;9.420;2022-09-09T15:37:09;4.47;;;1.13;;
53269;SDS011;39159;45.634;9.420;2022-09-09T15:39:36;4.55;;;1.27;;
53269;SDS011;39159;45.634;9.420;2022-09-09T15:42:01;2.35;;;1.50;;
53269;SDS011;39159;45.634;9.420;2022-09-09T15:44:26;3.00;;;1.30;;
53269;SDS011;39159;45.634;9.420;2022-09-09T15:46:52;3.40;;;1.05;;
53269;SDS011;39159;45.634;9.420;2022-09-09T15:49:22;2.58;;;1.20;;
53269;SDS011;39159;45.634;9.420;2022-09-09T15:51:52;2.42;;;1.30;;
53269;SDS011;39159;45.634;9.420;2022-09-09T15:54:27;4.15;;;1.33;;
53269;SDS011;39159;45.634;9.420;2022-09-09T15:56:56;4.28;;;1.23;;
53269;SDS011;39159;45.634;9.420;2022-09-09T15:59:26;2.67;;;1.30;;
53269;SDS011;39159;45.634;9.420;2022-09-09T16:01:53;1.80;;;1.15;;
53269;SDS011;39159;45.634;9.420;2022-09-09T16:04:20;3.05;;;1.40;;
53269;SDS011;39159;45.634;9.420;2022-09-09T16:06:58;1.77;;;1.00;;
53269;SDS011;39159;45.634;9.420;2022-09-09T16:09:26;3.28;;;1.23;;
53269;SDS011;39159;45.634;9.420;2022-09-09T16:11:53;2.20;;;1.20;;
53269;SDS011;39159;45.634;9.420;2022-09-09T16:14:21;2.05;;;1.30;;
53269;SDS011;39159;45.634;9.420;2022-09-09T16:16:47;2.33;;;1.30;;
53269;SDS011;39159;45.634;9.420;2022-09-09T16:19:14;4.53;;;1.17;;
53269;SDS011;39159;45.634;9.420;2022-09-09T16:21:40;1.98;;;1.25;;
53269;SDS011;39159;45.634;9.420;2022-09-09T16:24:09;4.75;;;1.63;;
53269;SDS011;39159;45.634;9.420;2022-09-09T16:26:38;2.90;;;1.13;;
53269;SDS011;39159;45.634;9.420;2022-09-09T16:29:05;4.25;;;1.20;;
53269;SDS011;39159;45.634;9.420;2022-09-09T16:31:31;1.63;;;0.93;;
53269;SDS011;39159;45.634;9.420;2022-09-09T16:34:01;4.88;;;1.58;;
53269;SDS011;39159;45.634;9.420;2022-09-09T16:36:29;3.15;;;1.55;;
53269;SDS011;39159;45.634;9.420;2022-09-09T16:38:59;4.07;;;1.30;;
53269;SDS011;39159;45.634;9.420;2022-09-09T16:41:27;1.42;;;0.95;;
53269;SDS011;39159;45.634;9.420;2022-09-09T16:43:54;3.53;;;1.35;;
53269;SDS011;39159;45.634;9.420;2022-09-09T16:46:24;4.28;;;1.17;;
53269;SDS011;39159;45.634;9.420;2022-09-09T16:48:51;4.78;;;1.50;;
53269;SDS011;39159;45.634;9.420;2022-09-09T16:51:26;3.53;;;1.40;;
53269;SDS011;39159;45.634;9.420;2022-09-09T16:53:54;3.83;;;1.63;;
53269;SDS011;39159;45.634;9.420;2022-09-09T16:56:25;3.60;;;1.10;;
53269;SDS011;39159;45.634;9.420;2022-09-09T16:58:52;4.28;;;1.40;;
53269;SDS011;39159;45.634;9.420;2022-09-09T17:01:24;2.90;;;1.23;;
53269;SDS011;39159;45.634;9.420;2022-09-09T17:03:54;3.28;;;1.20;;
53269;SDS011;39159;45.634;9.420;2022-09-09T17:06:24;2.13;;;1.10;;
53269;SDS011;39159;45.634;9.420;2022-09-09T17:08:54;2.72;;;1.40;;
53269;SDS011;39159;45.634;9.420;2022-09-09T17:11:20;3.20;;;1.33;;